Pagrindinis puslapis
METAR-TAF:

METAR-TAF

Oro uostai :

Luksoras, Egiptas

platuma: 25-40N, ilguma: 032-42E, Aukštis: 93 m

Dabartinis oras

Ataskaita buvo paskelbta 48 minutes, ne 06:00 UTC
Vėjas 3 kt iš Rytų/Pietryčių
Temperatūra 35°C
Drėgmė 17%
Slėgis 1010 hPa
Matomumas 10 km arba daugiau
nėra debesų žemiau 1500 m ir nėra kamuolinių lietaus debesų

METAR: HELX 240600Z 12003KT CAVOK 35/06 Q1010 NOSIG

Laikas: 08:48 (06:48 UTC)

Prognozė

Ataskaita buvo paskelbta 1 valandą ir 48 minutes, ne 05:00 UTC
Prognozė galioja nuo 24 metu 06 UTC su 25 metu 12 UTC
Vėjas 7 kt iš Šiaurės/Šiaurės Vakarų
Matomumas 10 km arba daugiau
nėra debesų žemiau 1500 m ir nėra kamuolinių lietaus debesų
Laikinai
nuo 24 metu 06 UTC su 24 metu 09 UTC
Matomumas: 6000 m
Laikinai
nuo 24 metu 10 UTC su 24 metu 18 UTC
Matomumas: 4000 m
Smėlis,

TAF: HELX 240500Z 2406/2512 33007KT CAVOK TEMPO 2406/2409 6000 NSC TEMPO 2410/2418 4000 SA

Orai ataskaitas ir orų prognozės (METAR, TAF).

turimą stotys yra geltonos ir raudonos taškus žemėlapyje.

Perkelti pele per norėdami pamatyti stoties vardą.

Tada spustelėkite, norėdami matyti oro stebėjimo ir prognozės.

Norėdami pakeisti žemėlapį: spustelėkite ant žalios mygtukų su juodo kryžiaus žemyn,; žalią mygtuką su brūkšneliu, jei norite nutolinti; arba žalių rodyklių gretimoms žemėlapius.


METAR-TAF: